Search for airport 
image banner adimage banner adimage banner ad
image banner ad

CA98 - Platform Ocs P-0188 Hondo

Located in Santa Barbara, United States

ICAO - CA98, IATA -

Data provided by Airmate  

General information

Coordinates: N34°23'27" W120°7'17"
Elevation is 142 feet MSL.
Magnetic variation is 14° East
View others Airports in California

Operational data

Special qualification required
Current time UTC:
Current local time:
Weather at : KIZA - Santa Ynez ( 24 km )
METAR: KIZA 270435Z AUTO 00000KT 10SM CLR 20/14 A2995 RMK AO2
View NOTAMs / SUP AIP / TFR affecting this airport [VIEW]
Communications frequencies: [VIEW]

Runways:

Airport contact information

Address: Santa Barbara United States

Satellite view of CA98